createdAt,value
2022-10-05T00:01:44.827Z,19.39
2022-10-05T00:04:17.248Z,19.42
2022-10-05T00:06:48.664Z,19.43
2022-10-05T00:09:21.059Z,19.43
2022-10-05T00:11:51.149Z,19.45
2022-10-05T00:14:21.779Z,19.44
2022-10-05T00:16:50.975Z,19.45
2022-10-05T00:19:34.621Z,19.51
2022-10-05T00:22:12.170Z,19.52
2022-10-05T00:24:42.329Z,19.48
2022-10-05T00:27:19.059Z,19.50
2022-10-05T00:29:49.489Z,19.51
2022-10-05T00:32:18.729Z,19.52
2022-10-05T00:34:51.129Z,19.55
2022-10-05T00:37:19.909Z,19.52
2022-10-05T00:39:51.369Z,19.57
2022-10-05T00:42:42.140Z,19.57
2022-10-05T00:45:15.619Z,19.55
2022-10-05T00:47:55.860Z,19.60
2022-10-05T00:50:59.236Z,19.61
2022-10-05T00:53:42.821Z,19.65
2022-10-05T00:56:27.130Z,19.74
2022-10-05T00:59:11.851Z,19.78
2022-10-05T01:01:48.636Z,19.75
2022-10-05T01:04:27.279Z,19.67
2022-10-05T01:07:07.249Z,19.66
2022-10-05T01:09:48.090Z,19.64
2022-10-05T01:12:27.001Z,19.61
2022-10-05T01:15:04.160Z,19.57
2022-10-05T01:17:42.189Z,19.57
2022-10-05T01:20:28.869Z,19.53
2022-10-05T01:23:24.629Z,19.50
2022-10-05T01:26:09.480Z,19.52
2022-10-05T01:28:47.209Z,19.49
2022-10-05T01:31:30.467Z,19.42
2022-10-05T01:34:11.605Z,19.38
2022-10-05T01:36:49.064Z,19.33
2022-10-05T01:39:28.578Z,19.29
2022-10-05T01:42:08.079Z,19.25
2022-10-05T01:44:47.130Z,19.26
2022-10-05T01:47:23.419Z,19.16
2022-10-05T01:50:01.635Z,19.18
2022-10-05T01:52:42.450Z,19.14
2022-10-05T01:55:21.519Z,19.12
2022-10-05T01:58:03.029Z,19.13
2022-10-05T02:00:36.929Z,19.09
2022-10-05T02:03:15.000Z,19.08
2022-10-05T02:05:52.829Z,19.06
2022-10-05T02:08:30.249Z,19.05
2022-10-05T02:11:03.769Z,19.15
2022-10-05T02:13:38.560Z,19.15
2022-10-05T02:16:14.700Z,19.16
2022-10-05T02:18:50.039Z,19.22
2022-10-05T02:21:20.049Z,19.25
2022-10-05T02:23:52.468Z,19.29
2022-10-05T02:26:22.129Z,19.29
2022-10-05T02:28:54.878Z,19.33
2022-10-05T02:31:30.375Z,19.30
2022-10-05T02:34:13.380Z,19.23
2022-10-05T02:36:44.220Z,19.13
2022-10-05T02:39:18.079Z,19.15
2022-10-05T02:41:54.909Z,19.30
2022-10-05T02:44:34.961Z,19.28
2022-10-05T02:47:14.858Z,19.33
2022-10-05T02:49:49.511Z,19.33
2022-10-05T02:52:27.109Z,19.28
2022-10-05T02:55:04.019Z,19.30
2022-10-05T02:57:40.460Z,19.27
2022-10-05T03:00:15.303Z,19.28
2022-10-05T03:02:54.348Z,19.28
2022-10-05T03:05:29.539Z,19.25
2022-10-05T03:08:04.009Z,19.27
2022-10-05T03:10:39.483Z,19.21
2022-10-05T03:13:15.559Z,19.19
2022-10-05T03:15:59.068Z,19.13
2022-10-05T03:18:44.439Z,19.11
2022-10-05T03:21:23.130Z,19.05
2022-10-05T03:24:09.539Z,18.99
2022-10-05T03:26:48.301Z,18.92
2022-10-05T03:29:32.064Z,18.87
2022-10-05T03:32:08.890Z,18.81
2022-10-05T03:34:46.779Z,18.85
2022-10-05T03:37:22.449Z,18.82
2022-10-05T03:39:56.429Z,18.80
2022-10-05T03:42:31.982Z,18.79
2022-10-05T03:45:07.089Z,18.73
2022-10-05T03:47:45.314Z,18.71
2022-10-05T03:50:33.529Z,18.66
2022-10-05T03:53:08.408Z,18.66
2022-10-05T03:55:42.759Z,18.66
2022-10-05T03:58:17.709Z,18.64
2022-10-05T04:00:50.169Z,18.62
2022-10-05T04:03:23.570Z,18.63
2022-10-05T04:05:57.870Z,18.62
2022-10-05T04:08:37.039Z,18.64
2022-10-05T04:11:11.569Z,18.68
2022-10-05T04:13:46.329Z,18.65
2022-10-05T04:16:18.810Z,18.65
2022-10-05T04:18:51.969Z,18.61
2022-10-05T04:21:26.389Z,18.53
2022-10-05T04:24:00.888Z,18.51
2022-10-05T04:26:41.209Z,18.51
2022-10-05T04:29:17.970Z,18.50
2022-10-05T04:31:59.989Z,18.48
2022-10-05T04:34:45.189Z,18.45
2022-10-05T04:37:23.381Z,18.44
2022-10-05T04:40:07.789Z,18.43
2022-10-05T04:42:41.839Z,18.43
2022-10-05T04:45:20.079Z,18.43
2022-10-05T04:48:19.088Z,18.50
2022-10-05T04:50:59.149Z,18.45
2022-10-05T04:53:34.779Z,18.55
2022-10-05T04:56:08.479Z,18.50
2022-10-05T04:58:57.239Z,18.44
2022-10-05T05:01:42.728Z,18.47
2022-10-05T05:04:38.000Z,18.51
2022-10-05T05:07:19.519Z,18.51
2022-10-05T05:10:21.869Z,18.55
2022-10-05T05:12:59.969Z,18.49
2022-10-05T05:15:38.170Z,18.53
2022-10-05T05:18:35.518Z,18.50
2022-10-05T05:21:15.329Z,18.48
2022-10-05T05:23:52.949Z,18.43
2022-10-05T05:26:32.760Z,18.42
2022-10-05T05:29:16.020Z,18.34
2022-10-05T05:31:51.469Z,18.35
2022-10-05T05:34:37.209Z,18.32
2022-10-05T05:37:16.455Z,18.31
2022-10-05T05:39:59.489Z,18.32
2022-10-05T05:42:37.289Z,18.30
2022-10-05T05:45:17.946Z,18.31
2022-10-05T05:47:54.089Z,18.29
2022-10-05T05:50:43.280Z,18.30
2022-10-05T05:53:19.129Z,18.30
2022-10-05T05:55:51.540Z,18.32
2022-10-05T05:58:26.829Z,18.28
2022-10-05T06:00:59.771Z,18.27
2022-10-05T06:03:38.391Z,18.26
2022-10-05T06:06:10.845Z,18.23
2022-10-05T06:08:44.939Z,18.13
2022-10-05T06:11:19.380Z,18.09
2022-10-05T06:13:50.319Z,18.04
2022-10-05T06:16:27.148Z,18.11
2022-10-05T06:18:59.025Z,18.04
2022-10-05T06:21:33.601Z,18.12
2022-10-05T06:24:06.660Z,18.00
2022-10-05T06:26:48.362Z,17.97
2022-10-05T06:29:24.549Z,17.88
2022-10-05T06:32:06.448Z,17.94
2022-10-05T06:34:52.643Z,18.03
2022-10-05T06:37:24.529Z,17.94
2022-10-05T06:40:05.177Z,18.00
2022-10-05T06:42:53.859Z,17.97
2022-10-05T06:45:36.688Z,17.97
2022-10-05T06:48:17.501Z,17.88
2022-10-05T06:50:54.099Z,17.86
2022-10-05T06:53:35.626Z,17.82
2022-10-05T06:56:10.672Z,17.86
2022-10-05T06:58:50.470Z,17.89
2022-10-05T07:01:32.509Z,17.94
2022-10-05T07:04:20.559Z,17.89
2022-10-05T07:06:54.580Z,17.81
2022-10-05T07:09:31.629Z,17.81
2022-10-05T07:12:27.929Z,17.82
2022-10-05T07:15:09.150Z,17.79
2022-10-05T07:17:54.230Z,17.75
2022-10-05T07:20:31.931Z,17.72
2022-10-05T07:23:25.350Z,17.76
2022-10-05T07:26:03.369Z,17.74
2022-10-05T07:28:40.547Z,17.73
2022-10-05T07:31:15.280Z,17.69
2022-10-05T07:33:53.459Z,17.66
2022-10-05T07:36:49.711Z,17.64
2022-10-05T07:39:58.309Z,17.67
2022-10-05T07:42:30.119Z,17.66
2022-10-05T07:45:09.982Z,17.64
2022-10-05T07:47:45.269Z,17.68
2022-10-05T07:50:22.091Z,17.69
2022-10-05T07:52:58.329Z,17.70
2022-10-05T07:55:29.019Z,17.72
2022-10-05T07:58:07.478Z,17.74
2022-10-05T08:00:56.198Z,17.78
2022-10-05T08:03:34.329Z,17.82
2022-10-05T08:06:09.521Z,17.85
2022-10-05T08:08:46.630Z,17.91
2022-10-05T08:11:18.689Z,17.93
2022-10-05T08:13:52.440Z,17.94
2022-10-05T08:16:22.404Z,18.01
2022-10-05T08:18:58.581Z,17.95
2022-10-05T08:21:34.619Z,17.94
2022-10-05T08:24:15.539Z,17.93
2022-10-05T08:26:53.520Z,18.02
2022-10-05T08:29:30.009Z,18.06
2022-10-05T08:32:04.010Z,18.09
2022-10-05T08:34:38.762Z,18.10
2022-10-05T08:37:15.099Z,18.08
2022-10-05T08:39:52.709Z,18.06
2022-10-05T08:42:49.710Z,18.09
2022-10-05T08:45:50.256Z,18.13
2022-10-05T08:48:43.899Z,18.18
2022-10-05T08:51:44.445Z,18.22
2022-10-05T08:54:39.738Z,18.30
2022-10-05T08:57:38.620Z,18.35
2022-10-05T09:00:13.215Z,18.33
2022-10-05T09:03:11.819Z,18.40
2022-10-05T09:06:14.683Z,18.49
2022-10-05T09:09:21.939Z,18.44
2022-10-05T09:12:08.429Z,18.43
2022-10-05T09:15:01.573Z,18.46
2022-10-05T09:18:08.819Z,18.47
2022-10-05T09:20:48.309Z,18.48
2022-10-05T09:23:32.940Z,18.57
2022-10-05T09:26:25.199Z,18.51
2022-10-05T09:29:12.529Z,18.58
2022-10-05T09:32:04.499Z,18.55
2022-10-05T09:35:06.292Z,18.60
2022-10-05T09:38:09.839Z,18.54
2022-10-05T09:41:04.987Z,18.52
2022-10-05T09:44:03.384Z,18.53
2022-10-05T09:47:14.669Z,18.62
2022-10-05T09:50:19.619Z,18.46
2022-10-05T09:53:20.281Z,18.49
2022-10-05T09:56:24.432Z,18.50
2022-10-05T09:59:32.490Z,18.52
2022-10-05T10:02:20.503Z,18.58
2022-10-05T10:05:15.860Z,18.61
2022-10-05T10:07:59.150Z,18.59
2022-10-05T10:10:57.821Z,18.69
2022-10-05T10:14:01.652Z,18.86
2022-10-05T10:16:57.939Z,18.86
2022-10-05T10:19:59.553Z,18.92
2022-10-05T10:23:04.370Z,18.98
2022-10-05T10:26:05.989Z,19.11
2022-10-05T10:29:10.460Z,19.13
2022-10-05T10:31:51.149Z,19.07
2022-10-05T10:34:44.349Z,19.06
2022-10-05T10:37:34.060Z,19.06
2022-10-05T10:40:23.660Z,19.10
2022-10-05T10:43:08.000Z,19.14
2022-10-05T10:45:49.682Z,19.17
2022-10-05T10:48:50.170Z,19.16
2022-10-05T10:51:27.189Z,19.27
2022-10-05T10:54:33.160Z,19.32
2022-10-05T10:57:07.309Z,19.33
2022-10-05T11:00:09.779Z,19.33
2022-10-05T11:03:05.350Z,19.18
2022-10-05T11:05:59.829Z,19.12
2022-10-05T11:09:15.759Z,19.11
2022-10-05T11:12:26.000Z,19.16
2022-10-05T11:15:15.000Z,19.15
2022-10-05T11:18:01.245Z,19.12
2022-10-05T11:21:05.270Z,19.10
2022-10-05T11:23:55.849Z,19.08
2022-10-05T11:26:43.789Z,19.09
2022-10-05T11:29:48.919Z,19.13
2022-10-05T11:32:48.260Z,19.15
2022-10-05T11:35:50.479Z,19.09
2022-10-05T11:38:42.669Z,19.13
2022-10-05T11:41:34.401Z,19.14
2022-10-05T11:44:39.119Z,19.12
2022-10-05T11:47:18.519Z,19.15
2022-10-05T11:49:56.270Z,19.17
2022-10-05T11:52:32.289Z,19.17
2022-10-05T11:55:24.909Z,19.16
2022-10-05T11:57:57.964Z,19.17
2022-10-05T12:00:32.888Z,19.22
2022-10-05T12:03:21.309Z,19.22
2022-10-05T12:06:13.579Z,19.25
2022-10-05T12:08:56.089Z,19.27
2022-10-05T12:11:44.430Z,19.32
2022-10-05T12:14:24.399Z,19.38
2022-10-05T12:17:00.449Z,19.40
2022-10-05T12:19:36.681Z,19.37
2022-10-05T12:22:15.729Z,19.36
2022-10-05T12:25:02.361Z,19.37
2022-10-05T12:27:35.629Z,19.44
2022-10-05T12:30:15.431Z,19.49
2022-10-05T12:33:01.724Z,19.48
2022-10-05T12:35:48.042Z,19.48
2022-10-05T12:38:25.200Z,19.43
2022-10-05T12:41:05.810Z,19.32
2022-10-05T12:43:44.613Z,19.36
2022-10-05T12:46:21.669Z,19.35
2022-10-05T12:49:23.379Z,19.29
2022-10-05T12:51:59.029Z,19.25
2022-10-05T12:54:38.975Z,19.19
2022-10-05T13:57:53.352Z,19.58
2022-10-05T14:00:26.595Z,19.62
2022-10-05T14:02:57.933Z,19.62
2022-10-05T14:05:28.212Z,19.59
2022-10-05T14:07:59.090Z,19.50
2022-10-05T14:10:34.189Z,19.50
2022-10-05T14:13:21.770Z,19.38
2022-10-05T14:16:21.948Z,19.33
2022-10-05T14:18:56.219Z,19.37
2022-10-05T14:21:26.610Z,19.31
2022-10-05T14:23:57.459Z,19.30
2022-10-05T14:26:36.729Z,19.25
2022-10-05T14:29:19.443Z,19.21
2022-10-05T14:31:52.549Z,19.18
2022-10-05T14:34:30.041Z,19.18
2022-10-05T14:37:00.256Z,19.20
2022-10-05T14:39:30.199Z,19.23
2022-10-05T14:42:14.019Z,19.27
2022-10-05T14:44:43.920Z,19.22
2022-10-05T14:47:23.060Z,19.24
2022-10-05T14:50:10.906Z,19.18
2022-10-05T14:52:41.319Z,19.21
2022-10-05T14:55:31.699Z,19.33
2022-10-05T14:58:12.814Z,19.38
2022-10-05T15:00:55.639Z,19.45
2022-10-05T15:03:42.662Z,19.45
2022-10-05T15:06:22.659Z,19.48
2022-10-05T15:09:16.740Z,19.56
2022-10-05T15:11:52.475Z,19.52
2022-10-05T15:14:24.324Z,19.47
2022-10-05T15:16:57.711Z,19.37
2022-10-05T15:19:34.578Z,19.30
2022-10-05T15:22:19.078Z,19.39
2022-10-05T15:24:58.013Z,19.43
2022-10-05T15:27:37.384Z,19.42
2022-10-05T15:30:12.027Z,19.40
2022-10-05T15:32:50.711Z,19.49
2022-10-05T15:35:54.456Z,19.58
2022-10-05T15:38:26.735Z,19.65
2022-10-05T15:41:08.184Z,19.61
2022-10-05T15:43:50.895Z,19.68
2022-10-05T15:46:25.848Z,19.82
2022-10-05T15:49:05.525Z,19.83
2022-10-05T15:51:50.998Z,19.85
2022-10-05T15:55:01.994Z,19.88
2022-10-05T15:57:40.848Z,19.97
2022-10-05T16:00:14.265Z,20.12
2022-10-05T16:02:49.427Z,20.26
2022-10-05T16:05:51.464Z,20.52
2022-10-05T16:08:54.925Z,20.67
2022-10-05T16:11:38.608Z,20.89
2022-10-05T16:14:20.675Z,20.97
2022-10-05T16:17:04.547Z,20.95
2022-10-05T16:19:42.945Z,20.42
2022-10-05T16:22:20.814Z,20.28
2022-10-05T16:25:12.165Z,20.72
2022-10-05T16:27:54.515Z,21.10
2022-10-05T16:30:26.204Z,21.36
2022-10-05T16:33:05.428Z,21.36
2022-10-05T16:35:44.648Z,21.30
2022-10-05T16:38:27.984Z,21.32
2022-10-05T16:41:05.314Z,21.24
2022-10-05T16:43:45.461Z,21.25
2022-10-05T16:46:27.686Z,21.21
2022-10-05T16:49:05.379Z,21.10
2022-10-05T16:51:41.604Z,20.96
2022-10-05T16:54:20.637Z,20.83
2022-10-05T16:56:54.450Z,20.74
2022-10-05T17:00:23.821Z,20.52
2022-10-05T17:03:11.984Z,20.44
2022-10-05T17:06:06.334Z,20.17
2022-10-05T17:08:52.879Z,20.16
2022-10-05T17:11:37.149Z,20.04
2022-10-05T17:14:21.699Z,19.72
2022-10-05T17:17:03.374Z,19.68
2022-10-05T17:19:55.089Z,19.83
2022-10-05T17:22:28.584Z,19.85
2022-10-05T17:25:06.846Z,19.83
2022-10-05T17:27:52.516Z,19.74
2022-10-05T17:30:24.834Z,19.61
2022-10-05T17:32:58.533Z,19.64
2022-10-05T17:35:52.106Z,19.64
2022-10-05T17:38:23.597Z,19.50
2022-10-05T17:41:17.045Z,19.31
2022-10-05T17:44:22.524Z,19.02
2022-10-05T17:46:56.243Z,18.63
2022-10-05T17:50:15.774Z,18.63
2022-10-05T17:53:02.818Z,18.66
2022-10-05T17:56:03.734Z,18.59
2022-10-05T17:59:03.495Z,18.61
2022-10-05T18:01:34.722Z,18.62
2022-10-05T18:04:33.824Z,18.51
2022-10-05T18:07:25.437Z,18.48
2022-10-05T18:10:17.639Z,18.43
2022-10-05T18:12:49.183Z,18.47
2022-10-05T18:15:49.394Z,18.44
2022-10-05T18:18:59.148Z,18.50
2022-10-05T18:21:40.354Z,18.56
2022-10-05T18:24:37.394Z,18.50
2022-10-05T18:27:27.480Z,18.44
2022-10-05T18:30:07.974Z,18.45
2022-10-05T18:33:08.614Z,18.44
2022-10-05T18:35:51.289Z,18.47
2022-10-05T18:38:34.465Z,18.46
2022-10-05T18:41:10.247Z,18.55
2022-10-05T18:43:45.054Z,18.52
2022-10-05T18:46:29.322Z,18.57
2022-10-05T18:49:20.524Z,18.92
2022-10-05T18:51:54.045Z,18.81
2022-10-05T18:54:38.796Z,18.69
2022-10-05T18:57:43.364Z,18.68
2022-10-05T19:00:17.707Z,18.71
2022-10-05T19:02:52.463Z,18.74
2022-10-05T19:05:47.032Z,18.89
2022-10-05T19:08:27.449Z,18.95
2022-10-05T19:11:02.714Z,18.89
2022-10-05T19:13:42.359Z,18.92
2022-10-05T19:16:25.866Z,18.92
2022-10-05T19:19:11.336Z,19.01
2022-10-05T19:21:48.651Z,18.88
2022-10-05T19:24:44.659Z,18.87
2022-10-05T19:27:25.966Z,18.84
2022-10-05T19:30:14.930Z,18.77
2022-10-05T19:32:56.335Z,18.73
2022-10-05T19:35:32.759Z,18.70
2022-10-05T19:38:22.278Z,18.66
2022-10-05T19:40:58.684Z,18.65
2022-10-05T19:43:47.076Z,18.79
2022-10-05T19:46:27.782Z,18.67
2022-10-05T19:48:56.785Z,18.65
2022-10-05T19:51:31.036Z,18.57
2022-10-05T19:54:02.894Z,18.53
2022-10-05T19:56:35.374Z,18.48
2022-10-05T19:59:14.854Z,18.43
2022-10-05T20:01:51.343Z,18.61
2022-10-05T20:04:35.887Z,18.47
2022-10-05T20:07:05.247Z,18.40
2022-10-05T20:09:55.434Z,18.36
2022-10-05T20:12:24.394Z,18.38
2022-10-05T20:15:36.016Z,18.30
2022-10-05T20:18:58.651Z,18.28
2022-10-05T20:21:43.491Z,18.22
2022-10-05T20:24:14.196Z,18.24
2022-10-05T20:27:05.407Z,18.22
2022-10-05T20:29:47.344Z,17.74
2022-10-05T20:32:22.459Z,17.68
2022-10-05T20:34:56.360Z,17.75
2022-10-05T20:37:25.970Z,17.82
2022-10-05T20:40:00.574Z,17.79
2022-10-05T20:42:34.509Z,17.83
2022-10-05T20:45:07.949Z,17.82
2022-10-05T20:47:38.569Z,17.81
2022-10-05T20:50:09.687Z,17.90
2022-10-05T20:52:39.098Z,17.88
2022-10-05T20:55:09.970Z,17.82
2022-10-05T20:57:42.463Z,17.78
2022-10-05T21:00:15.464Z,17.78
2022-10-05T21:02:47.089Z,17.73
2022-10-05T21:05:16.400Z,17.67
2022-10-05T21:08:07.519Z,17.65
2022-10-05T21:10:38.304Z,17.75
2022-10-05T21:13:08.040Z,17.71
2022-10-05T21:15:37.225Z,17.67
2022-10-05T21:18:07.464Z,17.63
2022-10-05T21:20:36.394Z,17.67
2022-10-05T21:23:04.995Z,17.69
2022-10-05T21:25:34.371Z,17.70
2022-10-05T21:28:03.167Z,17.75
2022-10-05T21:30:32.184Z,17.74
2022-10-05T21:33:00.886Z,17.70
2022-10-05T21:35:31.458Z,17.71
2022-10-05T21:37:59.935Z,18.10
2022-10-05T21:40:28.515Z,18.21
2022-10-05T21:42:57.001Z,18.19
2022-10-05T21:45:25.535Z,18.10
2022-10-05T21:47:54.144Z,17.99
2022-10-05T21:50:22.679Z,17.94
2022-10-05T21:52:53.880Z,18.00
2022-10-05T21:55:23.004Z,17.95
2022-10-05T21:57:51.524Z,17.86
2022-10-05T22:00:20.848Z,17.85
2022-10-05T22:02:49.709Z,17.85
2022-10-05T22:05:18.349Z,17.82
2022-10-05T22:07:46.938Z,17.89
2022-10-05T22:10:18.390Z,17.94
2022-10-05T22:12:47.786Z,17.79
2022-10-05T22:15:16.747Z,17.80
2022-10-05T22:17:46.327Z,17.80
2022-10-05T22:20:16.024Z,17.78
2022-10-05T22:22:44.475Z,17.74
2022-10-05T22:25:13.015Z,17.75
2022-10-05T22:27:43.559Z,17.76
2022-10-05T22:30:28.360Z,17.66
2022-10-05T22:32:59.704Z,17.66
2022-10-05T22:35:32.095Z,17.58
2022-10-05T22:38:08.244Z,17.56
2022-10-05T22:40:41.495Z,17.63
2022-10-05T22:43:13.304Z,17.58
2022-10-05T22:45:42.937Z,17.57
2022-10-05T22:48:12.214Z,17.57
2022-10-05T22:50:40.834Z,17.55
2022-10-05T22:53:09.934Z,17.54
2022-10-05T22:55:38.408Z,17.52
2022-10-05T22:58:07.274Z,17.53
2022-10-05T23:00:57.533Z,17.49
2022-10-05T23:03:27.004Z,17.50
2022-10-05T23:05:58.736Z,17.50
2022-10-05T23:08:27.724Z,17.46
2022-10-05T23:11:02.185Z,17.44
2022-10-05T23:13:31.385Z,17.44
2022-10-05T23:16:07.266Z,17.45
2022-10-05T23:18:35.985Z,17.39
2022-10-05T23:21:07.695Z,17.40
2022-10-05T23:23:37.874Z,17.36
2022-10-05T23:26:08.714Z,17.35
2022-10-05T23:28:37.229Z,17.29
2022-10-05T23:31:09.536Z,17.31
2022-10-05T23:33:38.065Z,17.30
2022-10-05T23:36:10.144Z,17.27
2022-10-05T23:38:38.624Z,17.28
2022-10-05T23:41:08.904Z,17.26
2022-10-05T23:43:38.333Z,17.26
2022-10-05T23:46:08.813Z,17.24
2022-10-05T23:48:38.666Z,17.21
2022-10-05T23:51:08.264Z,17.17
2022-10-05T23:53:37.145Z,17.19
2022-10-05T23:56:06.014Z,17.19
2022-10-05T23:58:34.538Z,17.18
